sensor_id;sensor_type;location;lat;lon;timestamp;P1;durP1;ratioP1;P2;durP2;ratioP2
60588;SDS011;46421;48.610;9.334;2024-02-26T00:01:56;3.03;;;1.08;;
60588;SDS011;46421;48.610;9.334;2024-02-26T00:04:21;2.28;;;0.77;;
60588;SDS011;46421;48.610;9.334;2024-02-26T00:06:47;3.10;;;1.08;;
60588;SDS011;46421;48.610;9.334;2024-02-26T00:09:14;3.05;;;1.08;;
60588;SDS011;46421;48.610;9.334;2024-02-26T00:11:40;2.28;;;0.77;;
60588;SDS011;46421;48.610;9.334;2024-02-26T00:14:05;3.40;;;1.00;;
60588;SDS011;46421;48.610;9.334;2024-02-26T00:16:31;3.53;;;1.00;;
60588;SDS011;46421;48.610;9.334;2024-02-26T00:18:56;3.28;;;1.02;;
60588;SDS011;46421;48.610;9.334;2024-02-26T00:21:21;3.60;;;1.13;;
60588;SDS011;46421;48.610;9.334;2024-02-26T00:23:47;2.40;;;0.93;;
60588;SDS011;46421;48.610;9.334;2024-02-26T00:26:14;2.17;;;1.00;;
60588;SDS011;46421;48.610;9.334;2024-02-26T00:28:40;1.63;;;0.65;;
60588;SDS011;46421;48.610;9.334;2024-02-26T00:31:05;3.05;;;0.90;;
60588;SDS011;46421;48.610;9.334;2024-02-26T00:33:31;2.90;;;0.82;;
60588;SDS011;46421;48.610;9.334;2024-02-26T00:35:56;2.07;;;0.80;;
60588;SDS011;46421;48.610;9.334;2024-02-26T00:38:22;2.60;;;0.88;;
60588;SDS011;46421;48.610;9.334;2024-02-26T00:40:47;1.77;;;0.80;;
60588;SDS011;46421;48.610;9.334;2024-02-26T00:43:12;2.67;;;1.00;;
60588;SDS011;46421;48.610;9.334;2024-02-26T00:45:38;1.60;;;0.77;;
60588;SDS011;46421;48.610;9.334;2024-02-26T00:48:03;3.67;;;1.10;;
60588;SDS011;46421;48.610;9.334;2024-02-26T00:52:59;2.95;;;0.90;;
60588;SDS011;46421;48.610;9.334;2024-02-26T00:55:25;2.80;;;0.88;;
60588;SDS011;46421;48.610;9.334;2024-02-26T00:57:50;1.45;;;0.77;;
60588;SDS011;46421;48.610;9.334;2024-02-26T01:00:16;2.53;;;1.00;;
60588;SDS011;46421;48.610;9.334;2024-02-26T01:02:42;2.95;;;1.10;;
60588;SDS011;46421;48.610;9.334;2024-02-26T01:05:07;4.45;;;1.17;;
60588;SDS011;46421;48.610;9.334;2024-02-26T01:12:30;1.88;;;0.98;;
60588;SDS011;46421;48.610;9.334;2024-02-26T01:14:56;4.60;;;1.08;;
60588;SDS011;46421;48.610;9.334;2024-02-26T01:17:21;2.07;;;0.90;;
60588;SDS011;46421;48.610;9.334;2024-02-26T01:19:46;2.33;;;0.82;;
60588;SDS011;46421;48.610;9.334;2024-02-26T01:22:12;3.20;;;1.13;;
60588;SDS011;46421;48.610;9.334;2024-02-26T01:24:37;2.65;;;1.10;;
60588;SDS011;46421;48.610;9.334;2024-02-26T01:27:03;3.20;;;1.15;;
60588;SDS011;46421;48.610;9.334;2024-02-26T01:29:28;2.58;;;1.02;;
60588;SDS011;46421;48.610;9.334;2024-02-26T01:31:54;1.87;;;0.93;;
60588;SDS011;46421;48.610;9.334;2024-02-26T01:34:20;4.18;;;1.23;;
60588;SDS011;46421;48.610;9.334;2024-02-26T01:36:45;3.40;;;1.38;;
60588;SDS011;46421;48.610;9.334;2024-02-26T01:39:11;3.10;;;1.27;;
60588;SDS011;46421;48.610;9.334;2024-02-26T01:41:38;4.68;;;1.27;;
60588;SDS011;46421;48.610;9.334;2024-02-26T01:44:06;3.90;;;1.40;;
60588;SDS011;46421;48.610;9.334;2024-02-26T01:46:32;3.92;;;1.23;;
60588;SDS011;46421;48.610;9.334;2024-02-26T01:48:58;2.30;;;1.25;;
60588;SDS011;46421;48.610;9.334;2024-02-26T01:51:24;2.63;;;1.00;;
60588;SDS011;46421;48.610;9.334;2024-02-26T01:53:49;1.35;;;0.80;;
60588;SDS011;46421;48.610;9.334;2024-02-26T01:56:15;3.38;;;1.38;;
60588;SDS011;46421;48.610;9.334;2024-02-26T01:58:41;1.63;;;0.73;;
60588;SDS011;46421;48.610;9.334;2024-02-26T02:01:07;1.70;;;0.75;;
60588;SDS011;46421;48.610;9.334;2024-02-26T02:03:33;2.10;;;0.82;;
60588;SDS011;46421;48.610;9.334;2024-02-26T02:05:58;3.15;;;0.80;;
60588;SDS011;46421;48.610;9.334;2024-02-26T02:08:24;2.67;;;0.73;;
60588;SDS011;46421;48.610;9.334;2024-02-26T02:10:50;2.28;;;0.80;;
60588;SDS011;46421;48.610;9.334;2024-02-26T02:13:15;1.88;;;0.85;;
60588;SDS011;46421;48.610;9.334;2024-02-26T02:15:40;2.53;;;1.00;;
60588;SDS011;46421;48.610;9.334;2024-02-26T02:18:06;2.38;;;0.85;;
60588;SDS011;46421;48.610;9.334;2024-02-26T02:20:32;2.72;;;1.08;;
60588;SDS011;46421;48.610;9.334;2024-02-26T02:22:59;3.03;;;1.15;;
60588;SDS011;46421;48.610;9.334;2024-02-26T02:25:24;2.15;;;0.90;;
60588;SDS011;46421;48.610;9.334;2024-02-26T02:27:49;3.15;;;1.13;;
60588;SDS011;46421;48.610;9.334;2024-02-26T02:30:15;2.33;;;0.90;;
60588;SDS011;46421;48.610;9.334;2024-02-26T02:32:41;3.00;;;1.00;;
60588;SDS011;46421;48.610;9.334;2024-02-26T02:35:07;4.15;;;0.98;;
60588;SDS011;46421;48.610;9.334;2024-02-26T02:37:32;2.30;;;0.82;;
60588;SDS011;46421;48.610;9.334;2024-02-26T02:39:58;2.05;;;0.75;;
60588;SDS011;46421;48.610;9.334;2024-02-26T02:42:23;2.97;;;0.63;;
60588;SDS011;46421;48.610;9.334;2024-02-26T02:44:49;2.53;;;0.80;;
60588;SDS011;46421;48.610;9.334;2024-02-26T02:47:14;1.48;;;0.73;;
60588;SDS011;46421;48.610;9.334;2024-02-26T02:49:40;1.77;;;0.75;;
60588;SDS011;46421;48.610;9.334;2024-02-26T02:52:05;2.08;;;0.90;;
60588;SDS011;46421;48.610;9.334;2024-02-26T02:54:31;2.67;;;1.05;;
60588;SDS011;46421;48.610;9.334;2024-02-26T02:56:56;2.67;;;1.00;;
60588;SDS011;46421;48.610;9.334;2024-02-26T02:59:21;1.95;;;0.90;;
60588;SDS011;46421;48.610;9.334;2024-02-26T03:01:47;4.55;;;1.08;;
60588;SDS011;46421;48.610;9.334;2024-02-26T03:04:12;1.87;;;0.80;;
60588;SDS011;46421;48.610;9.334;2024-02-26T03:06:38;2.70;;;0.90;;
60588;SDS011;46421;48.610;9.334;2024-02-26T03:09:03;4.03;;;0.90;;
60588;SDS011;46421;48.610;9.334;2024-02-26T03:11:28;2.40;;;0.80;;
60588;SDS011;46421;48.610;9.334;2024-02-26T03:13:54;2.87;;;1.00;;
60588;SDS011;46421;48.610;9.334;2024-02-26T03:16:20;3.78;;;1.00;;
60588;SDS011;46421;48.610;9.334;2024-02-26T03:18:45;2.77;;;0.97;;
60588;SDS011;46421;48.610;9.334;2024-02-26T03:21:10;2.40;;;1.20;;
60588;SDS011;46421;48.610;9.334;2024-02-26T03:23:36;2.08;;;1.00;;
60588;SDS011;46421;48.610;9.334;2024-02-26T03:26:03;2.90;;;0.90;;
60588;SDS011;46421;48.610;9.334;2024-02-26T03:30:54;2.75;;;1.02;;
60588;SDS011;46421;48.610;9.334;2024-02-26T03:33:19;5.20;;;1.55;;
60588;SDS011;46421;48.610;9.334;2024-02-26T03:35:45;2.23;;;0.83;;
60588;SDS011;46421;48.610;9.334;2024-02-26T03:38:10;2.90;;;1.08;;
60588;SDS011;46421;48.610;9.334;2024-02-26T03:40:35;4.43;;;1.33;;
60588;SDS011;46421;48.610;9.334;2024-02-26T03:43:01;3.67;;;1.45;;
60588;SDS011;46421;48.610;9.334;2024-02-26T03:45:27;3.13;;;1.45;;
60588;SDS011;46421;48.610;9.334;2024-02-26T03:47:53;3.15;;;1.30;;
60588;SDS011;46421;48.610;9.334;2024-02-26T03:50:18;3.80;;;1.33;;
60588;SDS011;46421;48.610;9.334;2024-02-26T03:52:43;2.17;;;0.83;;
60588;SDS011;46421;48.610;9.334;2024-02-26T03:55:09;2.22;;;0.90;;
60588;SDS011;46421;48.610;9.334;2024-02-26T03:57:35;2.13;;;1.00;;
60588;SDS011;46421;48.610;9.334;2024-02-26T04:00:01;2.35;;;0.90;;
60588;SDS011;46421;48.610;9.334;2024-02-26T04:02:26;1.98;;;0.73;;
60588;SDS011;46421;48.610;9.334;2024-02-26T04:04:52;3.30;;;1.10;;
60588;SDS011;46421;48.610;9.334;2024-02-26T04:07:17;2.83;;;1.15;;
60588;SDS011;46421;48.610;9.334;2024-02-26T04:09:43;1.90;;;0.53;;
60588;SDS011;46421;48.610;9.334;2024-02-26T04:12:08;4.10;;;1.10;;
60588;SDS011;46421;48.610;9.334;2024-02-26T04:14:35;4.07;;;1.00;;
60588;SDS011;46421;48.610;9.334;2024-02-26T04:17:00;1.85;;;0.98;;
60588;SDS011;46421;48.610;9.334;2024-02-26T04:19:26;3.70;;;1.00;;
60588;SDS011;46421;48.610;9.334;2024-02-26T04:21:51;2.67;;;0.80;;
60588;SDS011;46421;48.610;9.334;2024-02-26T04:24:16;3.27;;;1.20;;
60588;SDS011;46421;48.610;9.334;2024-02-26T04:26:42;3.03;;;1.05;;
60588;SDS011;46421;48.610;9.334;2024-02-26T04:29:07;2.17;;;0.80;;
60588;SDS011;46421;48.610;9.334;2024-02-26T04:31:32;2.50;;;0.88;;
60588;SDS011;46421;48.610;9.334;2024-02-26T04:34:01;2.38;;;0.70;;
60588;SDS011;46421;48.610;9.334;2024-02-26T04:36:26;3.80;;;0.97;;
60588;SDS011;46421;48.610;9.334;2024-02-26T04:38:51;4.23;;;0.93;;
60588;SDS011;46421;48.610;9.334;2024-02-26T04:41:19;2.88;;;0.90;;
60588;SDS011;46421;48.610;9.334;2024-02-26T04:43:45;1.75;;;0.73;;
60588;SDS011;46421;48.610;9.334;2024-02-26T04:46:10;2.77;;;0.93;;
60588;SDS011;46421;48.610;9.334;2024-02-26T04:48:36;2.45;;;1.00;;
60588;SDS011;46421;48.610;9.334;2024-02-26T04:51:01;2.58;;;1.00;;
60588;SDS011;46421;48.610;9.334;2024-02-26T04:53:27;1.60;;;0.80;;
60588;SDS011;46421;48.610;9.334;2024-02-26T04:55:52;3.70;;;1.20;;
60588;SDS011;46421;48.610;9.334;2024-02-26T04:58:18;5.13;;;1.10;;
60588;SDS011;46421;48.610;9.334;2024-02-26T05:00:43;2.85;;;1.15;;
60588;SDS011;46421;48.610;9.334;2024-02-26T05:03:09;3.35;;;1.08;;
60588;SDS011;46421;48.610;9.334;2024-02-26T05:05:38;3.63;;;1.05;;
60588;SDS011;46421;48.610;9.334;2024-02-26T05:08:04;1.88;;;0.93;;
60588;SDS011;46421;48.610;9.334;2024-02-26T05:10:29;3.80;;;1.50;;
60588;SDS011;46421;48.610;9.334;2024-02-26T05:12:54;3.85;;;1.30;;
60588;SDS011;46421;48.610;9.334;2024-02-26T05:15:20;3.13;;;0.90;;
60588;SDS011;46421;48.610;9.334;2024-02-26T05:17:45;3.60;;;1.05;;
60588;SDS011;46421;48.610;9.334;2024-02-26T05:20:10;2.87;;;1.20;;
60588;SDS011;46421;48.610;9.334;2024-02-26T05:22:36;2.97;;;1.15;;
60588;SDS011;46421;48.610;9.334;2024-02-26T05:25:02;3.72;;;1.10;;
60588;SDS011;46421;48.610;9.334;2024-02-26T05:27:28;3.55;;;1.15;;
60588;SDS011;46421;48.610;9.334;2024-02-26T05:29:53;3.35;;;1.20;;
60588;SDS011;46421;48.610;9.334;2024-02-26T05:32:19;4.22;;;1.48;;
60588;SDS011;46421;48.610;9.334;2024-02-26T05:34:44;2.95;;;1.20;;
60588;SDS011;46421;48.610;9.334;2024-02-26T05:37:10;3.38;;;1.25;;
60588;SDS011;46421;48.610;9.334;2024-02-26T05:39:36;3.47;;;1.33;;
60588;SDS011;46421;48.610;9.334;2024-02-26T05:42:01;1.85;;;0.93;;
60588;SDS011;46421;48.610;9.334;2024-02-26T05:44:27;2.45;;;1.00;;
60588;SDS011;46421;48.610;9.334;2024-02-26T05:46:52;4.70;;;1.52;;
60588;SDS011;46421;48.610;9.334;2024-02-26T05:49:18;18.38;;;6.03;;
60588;SDS011;46421;48.610;9.334;2024-02-26T05:51:43;20.45;;;6.93;;
60588;SDS011;46421;48.610;9.334;2024-02-26T05:54:09;18.05;;;5.78;;
60588;SDS011;46421;48.610;9.334;2024-02-26T05:56:35;8.75;;;3.30;;
60588;SDS011;46421;48.610;9.334;2024-02-26T05:59:00;3.70;;;1.42;;
60588;SDS011;46421;48.610;9.334;2024-02-26T06:01:26;2.78;;;1.00;;
60588;SDS011;46421;48.610;9.334;2024-02-26T06:03:51;3.25;;;1.10;;
60588;SDS011;46421;48.610;9.334;2024-02-26T06:06:16;3.40;;;1.30;;
60588;SDS011;46421;48.610;9.334;2024-02-26T06:08:42;3.55;;;1.13;;
60588;SDS011;46421;48.610;9.334;2024-02-26T06:11:08;2.97;;;0.88;;
60588;SDS011;46421;48.610;9.334;2024-02-26T06:13:34;3.45;;;1.08;;
60588;SDS011;46421;48.610;9.334;2024-02-26T06:16:02;4.07;;;1.10;;
60588;SDS011;46421;48.610;9.334;2024-02-26T06:18:28;2.75;;;1.20;;
60588;SDS011;46421;48.610;9.334;2024-02-26T06:20:53;4.70;;;1.50;;
60588;SDS011;46421;48.610;9.334;2024-02-26T06:23:19;2.42;;;1.10;;
60588;SDS011;46421;48.610;9.334;2024-02-26T06:25:44;3.60;;;1.20;;
60588;SDS011;46421;48.610;9.334;2024-02-26T06:28:09;3.90;;;1.20;;
60588;SDS011;46421;48.610;9.334;2024-02-26T06:30:35;2.22;;;0.93;;
60588;SDS011;46421;48.610;9.334;2024-02-26T06:33:01;2.72;;;1.08;;
60588;SDS011;46421;48.610;9.334;2024-02-26T06:35:26;2.88;;;1.20;;
60588;SDS011;46421;48.610;9.334;2024-02-26T06:37:52;3.25;;;0.90;;
60588;SDS011;46421;48.610;9.334;2024-02-26T06:40:18;2.95;;;0.90;;
60588;SDS011;46421;48.610;9.334;2024-02-26T06:42:44;2.13;;;0.85;;
60588;SDS011;46421;48.610;9.334;2024-02-26T06:45:09;3.10;;;0.88;;
60588;SDS011;46421;48.610;9.334;2024-02-26T06:47:35;3.58;;;1.10;;
60588;SDS011;46421;48.610;9.334;2024-02-26T06:50:00;3.17;;;0.90;;
60588;SDS011;46421;48.610;9.334;2024-02-26T06:52:26;2.53;;;1.00;;
60588;SDS011;46421;48.610;9.334;2024-02-26T06:54:51;2.55;;;0.95;;
60588;SDS011;46421;48.610;9.334;2024-02-26T06:57:19;2.80;;;0.90;;
60588;SDS011;46421;48.610;9.334;2024-02-26T06:59:44;2.50;;;0.80;;
60588;SDS011;46421;48.610;9.334;2024-02-26T07:02:12;2.45;;;0.70;;
60588;SDS011;46421;48.610;9.334;2024-02-26T07:04:38;1.67;;;0.70;;
60588;SDS011;46421;48.610;9.334;2024-02-26T07:07:03;2.10;;;1.02;;
60588;SDS011;46421;48.610;9.334;2024-02-26T07:09:29;3.38;;;1.00;;
60588;SDS011;46421;48.610;9.334;2024-02-26T07:11:54;3.60;;;1.10;;
60588;SDS011;46421;48.610;9.334;2024-02-26T07:14:19;3.80;;;1.00;;
60588;SDS011;46421;48.610;9.334;2024-02-26T07:16:45;2.28;;;0.90;;
60588;SDS011;46421;48.610;9.334;2024-02-26T07:19:10;2.95;;;1.13;;
60588;SDS011;46421;48.610;9.334;2024-02-26T07:21:35;1.77;;;0.98;;
60588;SDS011;46421;48.610;9.334;2024-02-26T07:24:01;5.60;;;1.05;;
60588;SDS011;46421;48.610;9.334;2024-02-26T07:26:27;4.75;;;1.13;;
60588;SDS011;46421;48.610;9.334;2024-02-26T07:28:54;4.18;;;1.45;;
60588;SDS011;46421;48.610;9.334;2024-02-26T07:31:20;4.40;;;1.20;;
60588;SDS011;46421;48.610;9.334;2024-02-26T07:33:46;2.65;;;1.10;;
60588;SDS011;46421;48.610;9.334;2024-02-26T07:36:11;2.97;;;1.00;;
60588;SDS011;46421;48.610;9.334;2024-02-26T07:38:36;2.78;;;1.25;;
60588;SDS011;46421;48.610;9.334;2024-02-26T07:41:02;3.30;;;1.00;;
60588;SDS011;46421;48.610;9.334;2024-02-26T07:43:28;2.97;;;1.02;;
60588;SDS011;46421;48.610;9.334;2024-02-26T07:45:54;1.77;;;0.85;;
60588;SDS011;46421;48.610;9.334;2024-02-26T07:48:19;5.28;;;1.52;;
60588;SDS011;46421;48.610;9.334;2024-02-26T07:50:45;3.00;;;1.10;;
60588;SDS011;46421;48.610;9.334;2024-02-26T07:53:10;3.53;;;1.33;;
60588;SDS011;46421;48.610;9.334;2024-02-26T07:55:36;3.58;;;1.30;;
60588;SDS011;46421;48.610;9.334;2024-02-26T07:58:01;2.53;;;1.10;;
60588;SDS011;46421;48.610;9.334;2024-02-26T08:00:26;3.33;;;1.20;;
60588;SDS011;46421;48.610;9.334;2024-02-26T08:02:52;2.83;;;1.23;;
60588;SDS011;46421;48.610;9.334;2024-02-26T08:05:17;4.22;;;1.50;;
60588;SDS011;46421;48.610;9.334;2024-02-26T08:07:42;3.67;;;1.38;;
60588;SDS011;46421;48.610;9.334;2024-02-26T08:10:08;3.10;;;1.13;;
60588;SDS011;46421;48.610;9.334;2024-02-26T08:12:33;4.38;;;1.60;;
60588;SDS011;46421;48.610;9.334;2024-02-26T08:14:59;3.77;;;1.50;;
60588;SDS011;46421;48.610;9.334;2024-02-26T08:17:25;3.97;;;1.40;;
60588;SDS011;46421;48.610;9.334;2024-02-26T08:19:50;2.85;;;1.27;;
60588;SDS011;46421;48.610;9.334;2024-02-26T08:22:16;4.13;;;1.60;;
60588;SDS011;46421;48.610;9.334;2024-02-26T08:24:42;3.50;;;1.60;;
60588;SDS011;46421;48.610;9.334;2024-02-26T08:27:08;4.10;;;1.23;;
60588;SDS011;46421;48.610;9.334;2024-02-26T08:29:33;4.93;;;1.67;;
60588;SDS011;46421;48.610;9.334;2024-02-26T08:31:59;4.30;;;1.15;;
60588;SDS011;46421;48.610;9.334;2024-02-26T08:34:24;6.63;;;1.55;;
60588;SDS011;46421;48.610;9.334;2024-02-26T08:36:50;6.85;;;1.40;;
60588;SDS011;46421;48.610;9.334;2024-02-26T08:39:16;5.65;;;1.60;;
60588;SDS011;46421;48.610;9.334;2024-02-26T08:41:42;5.25;;;1.45;;
60588;SDS011;46421;48.610;9.334;2024-02-26T08:44:11;3.90;;;1.25;;
60588;SDS011;46421;48.610;9.334;2024-02-26T08:46:36;3.88;;;1.38;;
60588;SDS011;46421;48.610;9.334;2024-02-26T08:49:02;5.03;;;1.35;;
60588;SDS011;46421;48.610;9.334;2024-02-26T08:51:27;3.40;;;1.20;;
60588;SDS011;46421;48.610;9.334;2024-02-26T08:53:52;6.45;;;2.85;;
60588;SDS011;46421;48.610;9.334;2024-02-26T08:56:19;14.38;;;4.75;;
60588;SDS011;46421;48.610;9.334;2024-02-26T08:58:46;12.20;;;3.97;;
60588;SDS011;46421;48.610;9.334;2024-02-26T09:01:13;44.60;;;15.95;;
60588;SDS011;46421;48.610;9.334;2024-02-26T09:03:39;23.73;;;10.95;;
60588;SDS011;46421;48.610;9.334;2024-02-26T09:06:05;15.60;;;6.35;;
60588;SDS011;46421;48.610;9.334;2024-02-26T09:08:31;6.20;;;2.30;;
60588;SDS011;46421;48.610;9.334;2024-02-26T09:10:57;7.55;;;2.75;;
60588;SDS011;46421;48.610;9.334;2024-02-26T09:13:22;17.30;;;8.13;;
60588;SDS011;46421;48.610;9.334;2024-02-26T09:15:48;13.90;;;5.68;;
60588;SDS011;46421;48.610;9.334;2024-02-26T09:18:14;6.70;;;2.70;;
60588;SDS011;46421;48.610;9.334;2024-02-26T09:20:40;5.78;;;1.75;;
60588;SDS011;46421;48.610;9.334;2024-02-26T09:23:05;3.38;;;1.50;;
60588;SDS011;46421;48.610;9.334;2024-02-26T09:25:31;4.32;;;1.50;;
60588;SDS011;46421;48.610;9.334;2024-02-26T09:27:58;3.30;;;1.60;;
60588;SDS011;46421;48.610;9.334;2024-02-26T09:30:24;4.80;;;1.45;;
60588;SDS011;46421;48.610;9.334;2024-02-26T09:32:49;3.70;;;1.60;;
60588;SDS011;46421;48.610;9.334;2024-02-26T09:35:14;4.05;;;1.60;;
60588;SDS011;46421;48.610;9.334;2024-02-26T09:37:41;4.90;;;1.50;;
60588;SDS011;46421;48.610;9.334;2024-02-26T09:40:08;5.65;;;1.88;;
60588;SDS011;46421;48.610;9.334;2024-02-26T09:42:37;5.25;;;1.75;;
60588;SDS011;46421;48.610;9.334;2024-02-26T09:45:04;4.28;;;1.70;;
60588;SDS011;46421;48.610;9.334;2024-02-26T09:47:33;4.15;;;1.38;;
60588;SDS011;46421;48.610;9.334;2024-02-26T09:50:01;3.78;;;1.42;;
60588;SDS011;46421;48.610;9.334;2024-02-26T09:52:28;5.28;;;1.90;;
60588;SDS011;46421;48.610;9.334;2024-02-26T09:54:55;4.40;;;1.77;;
60588;SDS011;46421;48.610;9.334;2024-02-26T09:57:21;3.85;;;1.48;;
60588;SDS011;46421;48.610;9.334;2024-02-26T09:59:49;3.65;;;1.65;;
60588;SDS011;46421;48.610;9.334;2024-02-26T10:02:16;5.68;;;1.83;;
60588;SDS011;46421;48.610;9.334;2024-02-26T10:04:43;6.22;;;1.60;;
60588;SDS011;46421;48.610;9.334;2024-02-26T10:07:09;4.57;;;1.67;;
60588;SDS011;46421;48.610;9.334;2024-02-26T10:09:36;6.30;;;1.73;;
60588;SDS011;46421;48.610;9.334;2024-02-26T10:12:01;6.03;;;2.17;;
60588;SDS011;46421;48.610;9.334;2024-02-26T10:14:27;5.68;;;1.58;;
60588;SDS011;46421;48.610;9.334;2024-02-26T10:16:53;3.60;;;1.50;;
60588;SDS011;46421;48.610;9.334;2024-02-26T10:19:25;4.93;;;1.60;;
60588;SDS011;46421;48.610;9.334;2024-02-26T10:21:54;4.38;;;1.80;;
60588;SDS011;46421;48.610;9.334;2024-02-26T10:24:21;5.30;;;2.00;;
60588;SDS011;46421;48.610;9.334;2024-02-26T10:26:46;5.93;;;1.40;;
60588;SDS011;46421;48.610;9.334;2024-02-26T10:29:12;4.63;;;1.98;;
60588;SDS011;46421;48.610;9.334;2024-02-26T10:31:37;4.88;;;1.77;;
60588;SDS011;46421;48.610;9.334;2024-02-26T10:34:07;4.22;;;1.60;;
60588;SDS011;46421;48.610;9.334;2024-02-26T10:36:35;4.45;;;1.60;;
60588;SDS011;46421;48.610;9.334;2024-02-26T10:39:01;6.25;;;2.17;;
60588;SDS011;46421;48.610;9.334;2024-02-26T10:41:28;4.72;;;1.60;;
60588;SDS011;46421;48.610;9.334;2024-02-26T10:43:54;5.25;;;1.60;;
60588;SDS011;46421;48.610;9.334;2024-02-26T10:46:19;3.78;;;1.58;;
60588;SDS011;46421;48.610;9.334;2024-02-26T10:48:49;5.15;;;1.48;;
60588;SDS011;46421;48.610;9.334;2024-02-26T10:51:16;3.78;;;1.38;;
60588;SDS011;46421;48.610;9.334;2024-02-26T10:53:44;4.78;;;1.83;;
60588;SDS011;46421;48.610;9.334;2024-02-26T10:56:10;4.75;;;1.33;;
60588;SDS011;46421;48.610;9.334;2024-02-26T10:58:36;4.70;;;1.33;;
60588;SDS011;46421;48.610;9.334;2024-02-26T11:01:02;6.20;;;1.35;;
60588;SDS011;46421;48.610;9.334;2024-02-26T11:03:28;2.80;;;1.17;;
60588;SDS011;46421;48.610;9.334;2024-02-26T11:05:57;3.10;;;0.90;;
60588;SDS011;46421;48.610;9.334;2024-02-26T11:08:23;3.97;;;1.13;;
60588;SDS011;46421;48.610;9.334;2024-02-26T11:10:50;5.43;;;1.25;;
60588;SDS011;46421;48.610;9.334;2024-02-26T11:13:18;2.88;;;1.10;;
60588;SDS011;46421;48.610;9.334;2024-02-26T11:15:47;3.17;;;1.13;;
60588;SDS011;46421;48.610;9.334;2024-02-26T11:18:16;3.40;;;1.00;;
60588;SDS011;46421;48.610;9.334;2024-02-26T11:20:44;4.05;;;1.00;;
60588;SDS011;46421;48.610;9.334;2024-02-26T11:23:10;3.70;;;1.15;;
60588;SDS011;46421;48.610;9.334;2024-02-26T11:25:35;3.80;;;1.30;;
60588;SDS011;46421;48.610;9.334;2024-02-26T11:28:03;3.42;;;1.17;;
60588;SDS011;46421;48.610;9.334;2024-02-26T11:30:30;3.53;;;1.33;;
60588;SDS011;46421;48.610;9.334;2024-02-26T11:32:57;4.05;;;1.35;;
60588;SDS011;46421;48.610;9.334;2024-02-26T11:35:23;4.43;;;1.35;;
60588;SDS011;46421;48.610;9.334;2024-02-26T11:37:55;2.95;;;1.10;;
60588;SDS011;46421;48.610;9.334;2024-02-26T11:40:22;3.97;;;1.30;;
60588;SDS011;46421;48.610;9.334;2024-02-26T11:42:49;3.90;;;1.17;;
60588;SDS011;46421;48.610;9.334;2024-02-26T11:48:04;4.00;;;1.45;;
60588;SDS011;46421;48.610;9.334;2024-02-26T11:50:38;4.13;;;1.33;;
60588;SDS011;46421;48.610;9.334;2024-02-26T11:53:20;3.88;;;1.27;;
60588;SDS011;46421;48.610;9.334;2024-02-26T11:55:47;3.85;;;1.35;;
60588;SDS011;46421;48.610;9.334;2024-02-26T11:58:13;3.60;;;1.35;;
60588;SDS011;46421;48.610;9.334;2024-02-26T12:00:41;3.43;;;1.03;;
60588;SDS011;46421;48.610;9.334;2024-02-26T12:03:07;2.95;;;1.10;;
60588;SDS011;46421;48.610;9.334;2024-02-26T12:05:35;3.33;;;1.17;;
60588;SDS011;46421;48.610;9.334;2024-02-26T12:08:03;2.85;;;1.27;;
60588;SDS011;46421;48.610;9.334;2024-02-26T12:10:32;2.72;;;0.90;;
60588;SDS011;46421;48.610;9.334;2024-02-26T12:13:13;4.13;;;1.20;;
60588;SDS011;46421;48.610;9.334;2024-02-26T12:15:41;2.75;;;1.17;;
60588;SDS011;46421;48.610;9.334;2024-02-26T12:18:10;3.83;;;1.20;;
60588;SDS011;46421;48.610;9.334;2024-02-26T12:20:40;4.20;;;1.45;;
60588;SDS011;46421;48.610;9.334;2024-02-26T12:23:06;4.03;;;1.50;;
60588;SDS011;46421;48.610;9.334;2024-02-26T12:25:31;5.18;;;1.58;;
60588;SDS011;46421;48.610;9.334;2024-02-26T12:27:58;2.88;;;1.02;;
60588;SDS011;46421;48.610;9.334;2024-02-26T12:30:24;6.13;;;1.50;;
60588;SDS011;46421;48.610;9.334;2024-02-26T12:32:54;3.08;;;1.20;;
60588;SDS011;46421;48.610;9.334;2024-02-26T12:35:22;3.75;;;1.40;;
60588;SDS011;46421;48.610;9.334;2024-02-26T12:37:48;4.80;;;1.50;;
60588;SDS011;46421;48.610;9.334;2024-02-26T12:40:14;2.63;;;1.20;;
60588;SDS011;46421;48.610;9.334;2024-02-26T12:42:39;2.78;;;1.10;;
60588;SDS011;46421;48.610;9.334;2024-02-26T12:45:08;2.45;;;1.00;;
60588;SDS011;46421;48.610;9.334;2024-02-26T12:47:39;2.67;;;1.05;;
60588;SDS011;46421;48.610;9.334;2024-02-26T12:50:06;3.97;;;1.42;;
60588;SDS011;46421;48.610;9.334;2024-02-26T12:52:32;2.80;;;1.00;;
60588;SDS011;46421;48.610;9.334;2024-02-26T12:57:24;2.37;;;0.87;;
60588;SDS011;46421;48.610;9.334;2024-02-26T12:59:50;3.97;;;1.00;;
60588;SDS011;46421;48.610;9.334;2024-02-26T13:02:16;2.55;;;1.10;;
60588;SDS011;46421;48.610;9.334;2024-02-26T13:04:41;3.17;;;0.70;;
60588;SDS011;46421;48.610;9.334;2024-02-26T13:07:07;2.47;;;1.00;;
60588;SDS011;46421;48.610;9.334;2024-02-26T13:09:32;2.20;;;0.80;;
60588;SDS011;46421;48.610;9.334;2024-02-26T13:12:00;1.65;;;0.93;;
60588;SDS011;46421;48.610;9.334;2024-02-26T13:14:29;3.83;;;0.80;;
60588;SDS011;46421;48.610;9.334;2024-02-26T13:16:57;2.33;;;0.73;;
60588;SDS011;46421;48.610;9.334;2024-02-26T13:19:22;2.22;;;0.60;;
60588;SDS011;46421;48.610;9.334;2024-02-26T13:21:48;2.00;;;0.70;;
60588;SDS011;46421;48.610;9.334;2024-02-26T13:24:16;1.77;;;0.80;;
60588;SDS011;46421;48.610;9.334;2024-02-26T13:31:42;2.00;;;0.70;;
60588;SDS011;46421;48.610;9.334;2024-02-26T13:34:07;2.47;;;0.90;;
60588;SDS011;46421;48.610;9.334;2024-02-26T13:36:33;2.17;;;0.80;;
60588;SDS011;46421;48.610;9.334;2024-02-26T13:38:58;3.00;;;0.95;;
60588;SDS011;46421;48.610;9.334;2024-02-26T13:41:25;3.15;;;0.95;;
60588;SDS011;46421;48.610;9.334;2024-02-26T13:43:51;3.65;;;0.98;;
60588;SDS011;46421;48.610;9.334;2024-02-26T13:46:16;3.13;;;0.85;;
60588;SDS011;46421;48.610;9.334;2024-02-26T13:48:42;2.05;;;0.75;;
60588;SDS011;46421;48.610;9.334;2024-02-26T13:51:07;2.60;;;1.00;;
60588;SDS011;46421;48.610;9.334;2024-02-26T13:53:33;2.65;;;1.02;;
60588;SDS011;46421;48.610;9.334;2024-02-26T13:55:58;2.40;;;0.90;;
60588;SDS011;46421;48.610;9.334;2024-02-26T13:58:26;2.47;;;0.98;;
60588;SDS011;46421;48.610;9.334;2024-02-26T14:00:52;2.63;;;0.90;;
60588;SDS011;46421;48.610;9.334;2024-02-26T14:03:18;3.47;;;0.98;;
60588;SDS011;46421;48.610;9.334;2024-02-26T14:05:44;2.92;;;1.00;;
60588;SDS011;46421;48.610;9.334;2024-02-26T14:08:09;1.92;;;0.82;;
60588;SDS011;46421;48.610;9.334;2024-02-26T14:10:35;3.58;;;1.05;;
60588;SDS011;46421;48.610;9.334;2024-02-26T14:13:01;4.43;;;1.25;;
60588;SDS011;46421;48.610;9.334;2024-02-26T14:15:27;2.05;;;0.70;;
60588;SDS011;46421;48.610;9.334;2024-02-26T14:17:53;2.78;;;0.85;;
60588;SDS011;46421;48.610;9.334;2024-02-26T14:20:22;2.88;;;0.73;;
60588;SDS011;46421;48.610;9.334;2024-02-26T14:22:51;3.40;;;1.00;;
60588;SDS011;46421;48.610;9.334;2024-02-26T14:25:18;2.70;;;0.82;;
60588;SDS011;46421;48.610;9.334;2024-02-26T14:27:45;5.30;;;0.93;;
60588;SDS011;46421;48.610;9.334;2024-02-26T14:30:11;2.92;;;1.15;;
60588;SDS011;46421;48.610;9.334;2024-02-26T14:32:37;2.97;;;1.00;;
60588;SDS011;46421;48.610;9.334;2024-02-26T14:35:04;3.00;;;0.98;;
60588;SDS011;46421;48.610;9.334;2024-02-26T14:37:31;2.33;;;1.05;;
60588;SDS011;46421;48.610;9.334;2024-02-26T14:39:56;2.75;;;1.10;;
60588;SDS011;46421;48.610;9.334;2024-02-26T14:42:22;2.78;;;1.00;;
60588;SDS011;46421;48.610;9.334;2024-02-26T14:44:49;2.30;;;0.98;;
60588;SDS011;46421;48.610;9.334;2024-02-26T14:47:15;2.90;;;0.90;;
60588;SDS011;46421;48.610;9.334;2024-02-26T14:49:41;4.57;;;1.08;;
60588;SDS011;46421;48.610;9.334;2024-02-26T14:52:06;4.10;;;1.30;;
60588;SDS011;46421;48.610;9.334;2024-02-26T14:54:31;4.13;;;1.02;;
60588;SDS011;46421;48.610;9.334;2024-02-26T14:57:02;2.60;;;0.90;;
60588;SDS011;46421;48.610;9.334;2024-02-26T14:59:28;5.38;;;1.20;;
60588;SDS011;46421;48.610;9.334;2024-02-26T15:01:53;2.80;;;1.10;;